CET,Max TemperatureF,Mean TemperatureF,Min TemperatureF,Max Dew PointF,MeanDew PointF,Min DewpointF,Max Humidity, Mean Humidity, Min Humidity, Max Sea Level PressureIn, Mean Sea Level PressureIn, Min Sea Level PressureIn, Max VisibilityMiles, Mean VisibilityMiles, Min VisibilityMiles, Max Wind SpeedMPH, Mean Wind SpeedMPH, Max Gust SpeedMPH,PrecipitationIn, CloudCover, Events, WindDirDegrees
2012-10-1,60,50,41,46,44,39,93,78,59,30.15,30.06,30.04,6,6,6,6,2,,0.00,1,,250
2012-10-2,60,51,42,46,43,41,100,72,48,30.09,30.06,30.06,6,6,6,10,4,,0.00,4,,237
2012-10-3,62,50,37,48,43,37,100,74,48,30.06,30.02,29.98,6,6,6,10,4,,0.00,2,Fog,218
2012-10-4,60,52,44,52,47,41,94,79,55,30.04,29.87,29.71,6,6,4,22,8,40,0.00,4,Rain,222
2012-10-5,62,50,37,52,45,36,100,80,63,30.06,29.98,29.92,6,6,6,12,6,30,0.00,4,,215
2012-10-6,68,60,50,52,49,41,94,66,40,29.98,29.92,29.86,6,6,6,18,10,34,0.00,3,Rain,232
2012-10-7,50,46,42,48,41,34,100,83,62,30.15,29.98,29.86,6,5,1,15,6,,0.00,5,Rain,317
2012-10-8,53,44,33,37,33,28,93,71,41,30.15,30.09,29.95,6,6,6,8,5,,0.00,1,,236
2012-10-9,55,44,33,41,36,32,93,73,44,29.98,29.85,29.80,6,6,6,15,6,,0.00,2,Rain,275
2012-10-10,48,39,30,36,32,28,100,75,54,29.98,29.94,29.92,6,6,6,8,3,,0.00,3,,296
2012-10-11,51,38,26,37,32,27,100,75,50,29.98,29.94,29.89,6,5,0,8,3,,0.00,2,Fog,102
2012-10-12,50,41,32,46,38,32,100,90,66,29.89,29.84,29.80,6,4,1,10,3,,0.00,5,Rain,100
2012-10-13,51,43,35,43,39,36,100,83,62,29.98,29.92,29.77,6,6,6,10,5,,0.00,2,Fog,236
2012-10-14,51,44,37,43,39,36,93,77,62,29.74,29.66,29.56,6,6,6,9,4,,0.00,4,Rain,173
2012-10-15,46,42,39,43,39,36,100,88,76,29.89,29.68,29.53,6,6,3,13,5,,0.00,5,Fog-Rain,239
2012-10-16,48,40,33,37,36,34,100,81,58,29.89,29.88,29.83,6,6,2,9,4,,0.00,4,,232
2012-10-17,59,47,35,45,41,36,100,76,55,30.01,29.99,29.92,6,6,6,7,5,,0.00,3,Fog,136
2012-10-18,50,44,39,46,43,39,100,94,82,30.09,30.05,30.01,6,2,0,8,2,,0.00,5,Fog,76
2012-10-19,55,50,44,50,47,45,100,94,77,30.09,30.08,30.06,6,2,0,8,4,,0.00,6,Fog,110
2012-10-20,59,52,44,52,47,43,100,95,72,30.12,30.11,30.06,6,2,0,6,3,,0.00,5,Fog,40
2012-10-21,62,48,35,50,43,36,100,88,59,30.15,30.11,30.06,6,2,0,10,4,,0.00,4,Fog,107
2012-10-22,48,44,39,48,44,37,100,93,87,30.24,30.19,30.15,4,2,0,12,4,,0.00,6,Fog,68
2012-10-23,55,48,42,46,44,41,100,87,72,30.27,30.25,30.24,6,4,2,7,6,,0.00,5,,96
2012-10-24,44,42,41,43,42,41,100,96,87,30.21,30.11,30.06,3,1,0,6,3,,0.00,6,Fog-Rain,313
2012-10-25,44,42,41,43,42,39,100,96,87,30.04,29.92,29.86,6,3,0,12,5,,0.00,7,Fog,250
2012-10-26,42,37,32,41,32,28,100,89,75,29.86,29.76,29.53,6,5,1,10,7,,0.00,7,Fog-Rain-Snow,45
2012-10-27,32,29,26,30,28,23,100,92,80,29.65,29.42,29.30,6,3,0,14,9,29,0.00,7,Fog-Snow,23
2012-10-28,32,26,17,28,24,18,100,85,69,29.98,29.84,29.65,6,6,4,8,4,,0.00,3,Snow,12
2012-10-29,33,24,15,27,21,14,100,89,65,29.98,29.92,29.80,6,6,0,7,3,,0.00,2,Fog,209
2012-10-30,35,29,23,34,31,21,100,92,87,29.80,29.67,29.62,6,5,2,9,4,,0.00,8,Rain-Snow,231
2012-10-31,44,38,32,37,34,30,100,92,76,29.68,29.63,29.50,6,4,0,15,3,,0.00,4,Fog,99